sensor_id;sensor_type;location;lat;lon;timestamp;P1;durP1;ratioP1;P2;durP2;ratioP2
75787;SDS011;64406;50.024;14.492;2023-02-01T00:01:59;1.80;;;1.40;;
75787;SDS011;64406;50.024;14.492;2023-02-01T00:04:26;1.90;;;1.33;;
75787;SDS011;64406;50.024;14.492;2023-02-01T00:06:52;2.10;;;1.40;;
75787;SDS011;64406;50.024;14.492;2023-02-01T00:09:18;2.60;;;1.48;;
75787;SDS011;64406;50.024;14.492;2023-02-01T00:11:43;3.97;;;1.30;;
75787;SDS011;64406;50.024;14.492;2023-02-01T00:14:09;1.80;;;1.48;;
75787;SDS011;64406;50.024;14.492;2023-02-01T00:16:35;2.80;;;1.48;;
75787;SDS011;64406;50.024;14.492;2023-02-01T00:19:02;3.00;;;1.30;;
75787;SDS011;64406;50.024;14.492;2023-02-01T00:21:34;1.60;;;1.00;;
75787;SDS011;64406;50.024;14.492;2023-02-01T00:24:00;2.13;;;1.10;;
75787;SDS011;64406;50.024;14.492;2023-02-01T00:26:33;3.17;;;1.75;;
75787;SDS011;64406;50.024;14.492;2023-02-01T00:29:00;2.17;;;1.58;;
75787;SDS011;64406;50.024;14.492;2023-02-01T00:31:28;1.42;;;1.20;;
75787;SDS011;64406;50.024;14.492;2023-02-01T00:33:54;2.80;;;1.50;;
75787;SDS011;64406;50.024;14.492;2023-02-01T00:36:20;2.27;;;1.50;;
75787;SDS011;64406;50.024;14.492;2023-02-01T00:38:45;4.68;;;1.70;;
75787;SDS011;64406;50.024;14.492;2023-02-01T00:41:15;1.75;;;1.20;;
75787;SDS011;64406;50.024;14.492;2023-02-01T00:43:43;1.20;;;1.10;;
75787;SDS011;64406;50.024;14.492;2023-02-01T00:46:09;1.88;;;1.40;;
75787;SDS011;64406;50.024;14.492;2023-02-01T00:48:36;5.27;;;1.60;;
75787;SDS011;64406;50.024;14.492;2023-02-01T00:51:03;3.83;;;1.70;;
75787;SDS011;64406;50.024;14.492;2023-02-01T00:53:30;2.13;;;1.60;;
75787;SDS011;64406;50.024;14.492;2023-02-01T00:55:56;3.33;;;1.70;;
75787;SDS011;64406;50.024;14.492;2023-02-01T00:58:22;2.20;;;1.60;;
75787;SDS011;64406;50.024;14.492;2023-02-01T01:03:31;2.10;;;1.60;;
75787;SDS011;64406;50.024;14.492;2023-02-01T01:06:02;2.30;;;1.50;;
75787;SDS011;64406;50.024;14.492;2023-02-01T01:08:30;3.35;;;1.70;;
75787;SDS011;64406;50.024;14.492;2023-02-01T01:10:56;3.60;;;1.70;;
75787;SDS011;64406;50.024;14.492;2023-02-01T01:13:21;2.03;;;1.57;;
75787;SDS011;64406;50.024;14.492;2023-02-01T01:15:47;3.37;;;1.70;;
75787;SDS011;64406;50.024;14.492;2023-02-01T01:18:12;3.43;;;1.87;;
75787;SDS011;64406;50.024;14.492;2023-02-01T01:20:39;4.20;;;1.87;;
75787;SDS011;64406;50.024;14.492;2023-02-01T01:23:06;5.47;;;1.80;;
75787;SDS011;64406;50.024;14.492;2023-02-01T01:25:37;2.27;;;2.00;;
75787;SDS011;64406;50.024;14.492;2023-02-01T01:28:04;1.60;;;1.40;;
75787;SDS011;64406;50.024;14.492;2023-02-01T01:30:30;2.38;;;1.83;;
75787;SDS011;64406;50.024;14.492;2023-02-01T01:32:55;2.73;;;2.17;;
75787;SDS011;64406;50.024;14.492;2023-02-01T01:35:21;3.10;;;2.10;;
75787;SDS011;64406;50.024;14.492;2023-02-01T01:37:47;3.27;;;2.00;;
75787;SDS011;64406;50.024;14.492;2023-02-01T01:40:12;2.87;;;2.03;;
75787;SDS011;64406;50.024;14.492;2023-02-01T01:42:39;3.13;;;1.80;;
75787;SDS011;64406;50.024;14.492;2023-02-01T01:45:08;3.50;;;1.47;;
75787;SDS011;64406;50.024;14.492;2023-02-01T01:47:50;2.43;;;1.50;;
75787;SDS011;64406;50.024;14.492;2023-02-01T01:50:21;3.50;;;1.98;;
75787;SDS011;64406;50.024;14.492;2023-02-01T01:52:52;2.72;;;1.70;;
75787;SDS011;64406;50.024;14.492;2023-02-01T01:55:21;2.37;;;1.80;;
75787;SDS011;64406;50.024;14.492;2023-02-01T01:57:51;4.43;;;1.50;;
75787;SDS011;64406;50.024;14.492;2023-02-01T02:00:24;5.03;;;1.80;;
75787;SDS011;64406;50.024;14.492;2023-02-01T02:02:52;3.60;;;1.60;;
75787;SDS011;64406;50.024;14.492;2023-02-01T02:05:22;3.50;;;1.40;;
75787;SDS011;64406;50.024;14.492;2023-02-01T02:07:49;5.70;;;1.50;;
75787;SDS011;64406;50.024;14.492;2023-02-01T02:10:18;3.10;;;1.65;;
75787;SDS011;64406;50.024;14.492;2023-02-01T02:12:44;2.63;;;1.30;;
75787;SDS011;64406;50.024;14.492;2023-02-01T02:15:14;3.30;;;1.50;;
75787;SDS011;64406;50.024;14.492;2023-02-01T02:17:44;2.17;;;1.50;;
75787;SDS011;64406;50.024;14.492;2023-02-01T02:22:54;3.50;;;1.40;;
75787;SDS011;64406;50.024;14.492;2023-02-01T02:36:15;2.80;;;1.67;;
75787;SDS011;64406;50.024;14.492;2023-02-01T02:39:00;2.22;;;1.38;;
75787;SDS011;64406;50.024;14.492;2023-02-01T02:44:49;3.78;;;1.38;;
75787;SDS011;64406;50.024;14.492;2023-02-01T02:53:27;4.68;;;1.60;;
75787;SDS011;64406;50.024;14.492;2023-02-01T02:56:25;2.13;;;1.50;;
75787;SDS011;64406;50.024;14.492;2023-02-01T02:59:11;2.77;;;1.60;;
75787;SDS011;64406;50.024;14.492;2023-02-01T03:01:57;3.33;;;1.55;;
75787;SDS011;64406;50.024;14.492;2023-02-01T03:04:42;1.77;;;1.50;;
75787;SDS011;64406;50.024;14.492;2023-02-01T03:07:15;2.60;;;1.30;;
75787;SDS011;64406;50.024;14.492;2023-02-01T03:10:26;3.47;;;1.63;;
75787;SDS011;64406;50.024;14.492;2023-02-01T03:13:08;1.93;;;1.47;;
75787;SDS011;64406;50.024;14.492;2023-02-01T03:15:43;5.97;;;1.90;;
75787;SDS011;64406;50.024;14.492;2023-02-01T03:18:18;4.80;;;1.75;;
75787;SDS011;64406;50.024;14.492;2023-02-01T03:20:50;2.10;;;1.50;;
75787;SDS011;64406;50.024;14.492;2023-02-01T03:23:19;6.18;;;1.58;;
75787;SDS011;64406;50.024;14.492;2023-02-01T03:25:48;2.00;;;1.40;;
75787;SDS011;64406;50.024;14.492;2023-02-01T03:28:17;1.60;;;1.40;;
75787;SDS011;64406;50.024;14.492;2023-02-01T03:30:48;3.60;;;1.70;;
75787;SDS011;64406;50.024;14.492;2023-02-01T03:33:19;4.20;;;1.77;;
75787;SDS011;64406;50.024;14.492;2023-02-01T03:35:52;2.50;;;1.63;;
75787;SDS011;64406;50.024;14.492;2023-02-01T03:41:18;5.13;;;2.10;;
75787;SDS011;64406;50.024;14.492;2023-02-01T03:46:48;4.80;;;2.13;;
75787;SDS011;64406;50.024;14.492;2023-02-01T03:49:22;5.55;;;2.10;;
75787;SDS011;64406;50.024;14.492;2023-02-01T03:51:53;3.40;;;1.70;;
75787;SDS011;64406;50.024;14.492;2023-02-01T03:54:21;4.30;;;2.20;;
75787;SDS011;64406;50.024;14.492;2023-02-01T03:56:49;2.33;;;1.73;;
75787;SDS011;64406;50.024;14.492;2023-02-01T03:59:17;2.60;;;1.90;;
75787;SDS011;64406;50.024;14.492;2023-02-01T04:01:43;5.47;;;2.03;;
75787;SDS011;64406;50.024;14.492;2023-02-01T04:04:09;4.80;;;1.83;;
75787;SDS011;64406;50.024;14.492;2023-02-01T04:06:35;3.87;;;1.80;;
75787;SDS011;64406;50.024;14.492;2023-02-01T04:09:00;4.90;;;2.07;;
75787;SDS011;64406;50.024;14.492;2023-02-01T04:11:26;5.37;;;2.27;;
75787;SDS011;64406;50.024;14.492;2023-02-01T04:13:52;4.77;;;2.07;;
75787;SDS011;64406;50.024;14.492;2023-02-01T04:16:18;3.03;;;1.80;;
75787;SDS011;64406;50.024;14.492;2023-02-01T04:18:44;4.03;;;2.10;;
75787;SDS011;64406;50.024;14.492;2023-02-01T04:21:09;4.97;;;2.33;;
75787;SDS011;64406;50.024;14.492;2023-02-01T04:23:35;5.13;;;2.37;;
75787;SDS011;64406;50.024;14.492;2023-02-01T04:26:02;7.33;;;2.63;;
75787;SDS011;64406;50.024;14.492;2023-02-01T04:28:29;7.10;;;2.40;;
75787;SDS011;64406;50.024;14.492;2023-02-01T04:30:55;6.17;;;2.10;;
75787;SDS011;64406;50.024;14.492;2023-02-01T04:33:21;2.83;;;1.97;;
75787;SDS011;64406;50.024;14.492;2023-02-01T04:35:47;3.30;;;2.10;;
75787;SDS011;64406;50.024;14.492;2023-02-01T04:38:12;6.90;;;2.57;;
75787;SDS011;64406;50.024;14.492;2023-02-01T04:40:38;7.03;;;2.40;;
75787;SDS011;64406;50.024;14.492;2023-02-01T04:43:04;9.80;;;3.00;;
75787;SDS011;64406;50.024;14.492;2023-02-01T04:45:30;3.53;;;2.30;;
75787;SDS011;64406;50.024;14.492;2023-02-01T04:47:56;5.80;;;2.07;;
75787;SDS011;64406;50.024;14.492;2023-02-01T04:50:22;4.13;;;2.00;;
75787;SDS011;64406;50.024;14.492;2023-02-01T04:52:48;3.07;;;1.77;;
75787;SDS011;64406;50.024;14.492;2023-02-01T04:55:14;6.03;;;2.30;;
75787;SDS011;64406;50.024;14.492;2023-02-01T04:57:40;6.27;;;2.30;;
75787;SDS011;64406;50.024;14.492;2023-02-01T05:00:06;5.77;;;2.20;;
75787;SDS011;64406;50.024;14.492;2023-02-01T05:02:33;3.90;;;2.37;;
75787;SDS011;64406;50.024;14.492;2023-02-01T05:05:00;2.93;;;2.10;;
75787;SDS011;64406;50.024;14.492;2023-02-01T05:07:27;3.37;;;2.30;;
75787;SDS011;64406;50.024;14.492;2023-02-01T05:09:53;4.63;;;2.57;;
75787;SDS011;64406;50.024;14.492;2023-02-01T05:12:18;2.93;;;2.40;;
75787;SDS011;64406;50.024;14.492;2023-02-01T05:15:02;3.88;;;2.40;;
75787;SDS011;64406;50.024;14.492;2023-02-01T05:17:28;5.63;;;2.73;;
75787;SDS011;64406;50.024;14.492;2023-02-01T05:19:54;6.10;;;2.33;;
75787;SDS011;64406;50.024;14.492;2023-02-01T05:22:19;7.97;;;2.53;;
75787;SDS011;64406;50.024;14.492;2023-02-01T05:24:45;5.37;;;2.60;;
75787;SDS011;64406;50.024;14.492;2023-02-01T05:27:11;4.15;;;2.30;;
75787;SDS011;64406;50.024;14.492;2023-02-01T05:29:36;8.07;;;2.40;;
75787;SDS011;64406;50.024;14.492;2023-02-01T05:32:02;2.80;;;2.00;;
75787;SDS011;64406;50.024;14.492;2023-02-01T05:34:27;4.93;;;2.17;;
75787;SDS011;64406;50.024;14.492;2023-02-01T05:36:53;3.60;;;2.13;;
75787;SDS011;64406;50.024;14.492;2023-02-01T05:39:19;4.67;;;1.90;;
75787;SDS011;64406;50.024;14.492;2023-02-01T05:41:45;5.07;;;1.80;;
75787;SDS011;64406;50.024;14.492;2023-02-01T05:44:10;3.57;;;1.80;;
75787;SDS011;64406;50.024;14.492;2023-02-01T05:46:36;2.53;;;1.43;;
75787;SDS011;64406;50.024;14.492;2023-02-01T05:49:03;3.27;;;1.90;;
75787;SDS011;64406;50.024;14.492;2023-02-01T05:51:29;2.97;;;1.53;;
75787;SDS011;64406;50.024;14.492;2023-02-01T05:53:55;3.53;;;1.47;;
75787;SDS011;64406;50.024;14.492;2023-02-01T05:56:21;1.53;;;1.10;;
75787;SDS011;64406;50.024;14.492;2023-02-01T05:58:47;2.60;;;1.73;;
75787;SDS011;64406;50.024;14.492;2023-02-01T06:01:12;5.07;;;1.50;;
75787;SDS011;64406;50.024;14.492;2023-02-01T06:03:38;3.77;;;1.43;;
75787;SDS011;64406;50.024;14.492;2023-02-01T06:06:04;3.30;;;1.73;;
75787;SDS011;64406;50.024;14.492;2023-02-01T06:08:29;2.03;;;1.47;;
75787;SDS011;64406;50.024;14.492;2023-02-01T06:11:02;1.83;;;1.43;;
75787;SDS011;64406;50.024;14.492;2023-02-01T06:13:29;2.70;;;1.60;;
75787;SDS011;64406;50.024;14.492;2023-02-01T06:15:54;5.07;;;1.97;;
75787;SDS011;64406;50.024;14.492;2023-02-01T06:18:21;3.83;;;1.60;;
75787;SDS011;64406;50.024;14.492;2023-02-01T06:20:51;3.73;;;1.80;;
75787;SDS011;64406;50.024;14.492;2023-02-01T06:23:18;2.40;;;1.43;;
75787;SDS011;64406;50.024;14.492;2023-02-01T06:25:44;2.73;;;1.60;;
75787;SDS011;64406;50.024;14.492;2023-02-01T06:28:10;3.10;;;1.73;;
75787;SDS011;64406;50.024;14.492;2023-02-01T06:30:36;2.73;;;1.30;;
75787;SDS011;64406;50.024;14.492;2023-02-01T06:33:01;4.40;;;1.93;;
75787;SDS011;64406;50.024;14.492;2023-02-01T06:35:27;4.37;;;1.87;;
75787;SDS011;64406;50.024;14.492;2023-02-01T06:37:53;4.80;;;1.57;;
75787;SDS011;64406;50.024;14.492;2023-02-01T06:40:18;6.73;;;2.20;;
75787;SDS011;64406;50.024;14.492;2023-02-01T06:42:44;2.67;;;1.60;;
75787;SDS011;64406;50.024;14.492;2023-02-01T06:45:09;3.83;;;2.17;;
75787;SDS011;64406;50.024;14.492;2023-02-01T06:47:35;5.70;;;2.07;;
75787;SDS011;64406;50.024;14.492;2023-02-01T06:50:01;4.93;;;2.00;;
75787;SDS011;64406;50.024;14.492;2023-02-01T06:52:26;8.33;;;2.57;;
75787;SDS011;64406;50.024;14.492;2023-02-01T06:54:52;3.50;;;1.77;;
75787;SDS011;64406;50.024;14.492;2023-02-01T06:57:18;4.17;;;1.70;;
75787;SDS011;64406;50.024;14.492;2023-02-01T06:59:46;3.57;;;2.27;;
75787;SDS011;64406;50.024;14.492;2023-02-01T07:02:12;6.33;;;2.43;;
75787;SDS011;64406;50.024;14.492;2023-02-01T07:04:38;4.57;;;2.10;;
75787;SDS011;64406;50.024;14.492;2023-02-01T07:07:03;3.93;;;1.80;;
75787;SDS011;64406;50.024;14.492;2023-02-01T07:09:29;4.40;;;1.97;;
75787;SDS011;64406;50.024;14.492;2023-02-01T07:11:55;6.60;;;2.80;;
75787;SDS011;64406;50.024;14.492;2023-02-01T07:14:20;7.45;;;2.53;;
75787;SDS011;64406;50.024;14.492;2023-02-01T07:16:46;3.17;;;2.17;;
75787;SDS011;64406;50.024;14.492;2023-02-01T07:19:12;3.13;;;2.25;;
75787;SDS011;64406;50.024;14.492;2023-02-01T07:21:37;4.33;;;2.10;;
75787;SDS011;64406;50.024;14.492;2023-02-01T07:24:03;4.87;;;2.40;;
75787;SDS011;64406;50.024;14.492;2023-02-01T07:26:29;7.73;;;2.60;;
75787;SDS011;64406;50.024;14.492;2023-02-01T07:28:54;7.43;;;2.53;;
75787;SDS011;64406;50.024;14.492;2023-02-01T07:31:20;4.87;;;2.27;;
75787;SDS011;64406;50.024;14.492;2023-02-01T07:33:47;3.70;;;2.60;;
75787;SDS011;64406;50.024;14.492;2023-02-01T07:36:17;8.27;;;3.23;;
75787;SDS011;64406;50.024;14.492;2023-02-01T07:38:43;9.38;;;3.13;;
75787;SDS011;64406;50.024;14.492;2023-02-01T07:41:09;4.43;;;2.65;;
75787;SDS011;64406;50.024;14.492;2023-02-01T07:43:35;4.43;;;2.25;;
75787;SDS011;64406;50.024;14.492;2023-02-01T07:46:09;7.88;;;2.67;;
75787;SDS011;64406;50.024;14.492;2023-02-01T07:48:36;7.95;;;2.83;;
75787;SDS011;64406;50.024;14.492;2023-02-01T07:53:30;8.73;;;2.65;;
75787;SDS011;64406;50.024;14.492;2023-02-01T07:55:57;5.15;;;2.53;;
75787;SDS011;64406;50.024;14.492;2023-02-01T07:58:23;5.83;;;2.53;;
75787;SDS011;64406;50.024;14.492;2023-02-01T08:00:50;5.77;;;2.97;;
75787;SDS011;64406;50.024;14.492;2023-02-01T08:03:34;5.20;;;2.60;;
75787;SDS011;64406;50.024;14.492;2023-02-01T08:06:00;4.97;;;2.10;;
75787;SDS011;64406;50.024;14.492;2023-02-01T08:08:26;3.23;;;2.30;;
75787;SDS011;64406;50.024;14.492;2023-02-01T08:10:56;4.57;;;2.22;;
75787;SDS011;64406;50.024;14.492;2023-02-01T08:13:23;6.13;;;3.08;;
75787;SDS011;64406;50.024;14.492;2023-02-01T08:15:48;4.13;;;2.30;;
75787;SDS011;64406;50.024;14.492;2023-02-01T08:18:14;4.10;;;2.35;;
75787;SDS011;64406;50.024;14.492;2023-02-01T08:20:41;4.17;;;2.50;;
75787;SDS011;64406;50.024;14.492;2023-02-01T08:23:08;3.90;;;2.38;;
75787;SDS011;64406;50.024;14.492;2023-02-01T08:25:34;5.47;;;2.70;;
75787;SDS011;64406;50.024;14.492;2023-02-01T08:28:01;3.17;;;2.37;;
75787;SDS011;64406;50.024;14.492;2023-02-01T08:30:27;3.08;;;2.22;;
75787;SDS011;64406;50.024;14.492;2023-02-01T08:32:53;4.57;;;2.25;;
75787;SDS011;64406;50.024;14.492;2023-02-01T08:35:19;3.60;;;1.70;;
75787;SDS011;64406;50.024;14.492;2023-02-01T08:37:44;5.38;;;2.00;;
75787;SDS011;64406;50.024;14.492;2023-02-01T08:40:10;3.90;;;2.40;;
75787;SDS011;64406;50.024;14.492;2023-02-01T08:42:40;8.77;;;2.42;;
75787;SDS011;64406;50.024;14.492;2023-02-01T08:45:19;3.60;;;1.73;;
75787;SDS011;64406;50.024;14.492;2023-02-01T08:47:46;2.90;;;1.83;;
75787;SDS011;64406;50.024;14.492;2023-02-01T08:50:12;5.15;;;2.63;;
75787;SDS011;64406;50.024;14.492;2023-02-01T08:52:38;5.88;;;2.03;;
75787;SDS011;64406;50.024;14.492;2023-02-01T08:55:04;4.00;;;2.13;;
75787;SDS011;64406;50.024;14.492;2023-02-01T08:57:31;4.05;;;1.83;;
75787;SDS011;64406;50.024;14.492;2023-02-01T08:59:58;2.23;;;1.53;;
75787;SDS011;64406;50.024;14.492;2023-02-01T09:02:25;7.00;;;2.00;;
75787;SDS011;64406;50.024;14.492;2023-02-01T09:04:52;2.38;;;1.67;;
75787;SDS011;64406;50.024;14.492;2023-02-01T09:07:18;5.53;;;2.33;;
75787;SDS011;64406;50.024;14.492;2023-02-01T09:09:44;8.52;;;2.50;;
75787;SDS011;64406;50.024;14.492;2023-02-01T09:12:10;3.15;;;1.55;;
75787;SDS011;64406;50.024;14.492;2023-02-01T09:14:36;2.95;;;1.80;;
75787;SDS011;64406;50.024;14.492;2023-02-01T09:17:02;3.85;;;1.90;;
75787;SDS011;64406;50.024;14.492;2023-02-01T09:19:28;4.55;;;1.50;;
75787;SDS011;64406;50.024;14.492;2023-02-01T09:21:54;6.03;;;1.88;;
75787;SDS011;64406;50.024;14.492;2023-02-01T09:24:20;3.67;;;1.90;;
75787;SDS011;64406;50.024;14.492;2023-02-01T09:26:45;4.05;;;1.80;;
75787;SDS011;64406;50.024;14.492;2023-02-01T09:29:11;3.28;;;1.65;;
75787;SDS011;64406;50.024;14.492;2023-02-01T09:31:38;3.60;;;1.73;;
75787;SDS011;64406;50.024;14.492;2023-02-01T09:34:04;4.55;;;1.45;;
75787;SDS011;64406;50.024;14.492;2023-02-01T09:36:34;6.45;;;1.83;;
75787;SDS011;64406;50.024;14.492;2023-02-01T09:39:01;6.85;;;2.13;;
75787;SDS011;64406;50.024;14.492;2023-02-01T09:41:42;4.63;;;1.77;;
75787;SDS011;64406;50.024;14.492;2023-02-01T09:47:19;5.60;;;1.58;;
75787;SDS011;64406;50.024;14.492;2023-02-01T09:52:34;5.15;;;2.15;;
75787;SDS011;64406;50.024;14.492;2023-02-01T09:55:09;8.88;;;2.33;;
75787;SDS011;64406;50.024;14.492;2023-02-01T09:58:07;4.13;;;1.83;;
75787;SDS011;64406;50.024;14.492;2023-02-01T10:00:55;6.38;;;1.95;;
75787;SDS011;64406;50.024;14.492;2023-02-01T10:03:23;2.10;;;1.08;;
75787;SDS011;64406;50.024;14.492;2023-02-01T10:08:40;4.65;;;1.73;;
75787;SDS011;64406;50.024;14.492;2023-02-01T10:11:19;4.03;;;1.67;;
75787;SDS011;64406;50.024;14.492;2023-02-01T10:13:59;4.95;;;1.75;;
75787;SDS011;64406;50.024;14.492;2023-02-01T10:16:52;2.80;;;1.35;;
75787;SDS011;64406;50.024;14.492;2023-02-01T10:22:40;5.22;;;1.70;;
75787;SDS011;64406;50.024;14.492;2023-02-01T10:27:56;4.43;;;1.83;;
75787;SDS011;64406;50.024;14.492;2023-02-01T10:30:26;5.65;;;2.15;;
75787;SDS011;64406;50.024;14.492;2023-02-01T10:32:57;8.68;;;2.15;;
75787;SDS011;64406;50.024;14.492;2023-02-01T10:35:39;5.78;;;2.00;;
75787;SDS011;64406;50.024;14.492;2023-02-01T10:38:08;4.18;;;2.05;;
75787;SDS011;64406;50.024;14.492;2023-02-01T10:40:43;9.93;;;1.85;;
75787;SDS011;64406;50.024;14.492;2023-02-01T10:43:09;5.38;;;2.33;;
75787;SDS011;64406;50.024;14.492;2023-02-01T10:45:35;3.75;;;1.75;;
75787;SDS011;64406;50.024;14.492;2023-02-01T10:48:04;4.90;;;1.65;;
75787;SDS011;64406;50.024;14.492;2023-02-01T10:50:35;4.47;;;1.95;;
75787;SDS011;64406;50.024;14.492;2023-02-01T10:53:29;8.30;;;2.30;;
75787;SDS011;64406;50.024;14.492;2023-02-01T10:56:09;5.68;;;1.88;;
75787;SDS011;64406;50.024;14.492;2023-02-01T10:58:43;3.35;;;1.35;;
75787;SDS011;64406;50.024;14.492;2023-02-01T11:01:16;5.00;;;2.05;;
75787;SDS011;64406;50.024;14.492;2023-02-01T11:04:09;7.00;;;1.67;;
75787;SDS011;64406;50.024;14.492;2023-02-01T11:06:48;3.60;;;1.70;;
75787;SDS011;64406;50.024;14.492;2023-02-01T11:09:22;7.55;;;1.88;;
75787;SDS011;64406;50.024;14.492;2023-02-01T11:19:20;6.30;;;1.85;;
75787;SDS011;64406;50.024;14.492;2023-02-01T11:21:51;4.28;;;1.58;;
75787;SDS011;64406;50.024;14.492;2023-02-01T11:24:22;4.22;;;2.00;;
75787;SDS011;64406;50.024;14.492;2023-02-01T11:26:51;8.23;;;2.08;;
75787;SDS011;64406;50.024;14.492;2023-02-01T11:29:21;5.80;;;1.40;;
75787;SDS011;64406;50.024;14.492;2023-02-01T11:34:25;3.72;;;1.88;;
75787;SDS011;64406;50.024;14.492;2023-02-01T11:37:02;4.43;;;1.92;;
75787;SDS011;64406;50.024;14.492;2023-02-01T11:39:30;7.80;;;1.70;;
75787;SDS011;64406;50.024;14.492;2023-02-01T11:42:16;8.38;;;1.60;;
75787;SDS011;64406;50.024;14.492;2023-02-01T11:44:43;14.57;;;2.50;;
75787;SDS011;64406;50.024;14.492;2023-02-01T11:47:23;6.60;;;1.55;;
75787;SDS011;64406;50.024;14.492;2023-02-01T11:49:54;9.23;;;1.87;;
75787;SDS011;64406;50.024;14.492;2023-02-01T12:05:09;4.05;;;1.17;;
75787;SDS011;64406;50.024;14.492;2023-02-01T12:07:16;3.80;;;1.17;;
75787;SDS011;64406;50.024;14.492;2023-02-01T12:10:10;7.07;;;1.80;;
75787;SDS011;64406;50.024;14.492;2023-02-01T12:12:51;2.55;;;1.67;;
75787;SDS011;64406;50.024;14.492;2023-02-01T12:26:21;7.78;;;1.27;;
75787;SDS011;64406;50.024;14.492;2023-02-01T12:34:08;7.88;;;1.55;;
75787;SDS011;64406;50.024;14.492;2023-02-01T12:39:39;3.00;;;1.25;;
75787;SDS011;64406;50.024;14.492;2023-02-01T12:42:11;4.15;;;1.20;;
75787;SDS011;64406;50.024;14.492;2023-02-01T12:47:41;4.00;;;1.40;;
75787;SDS011;64406;50.024;14.492;2023-02-01T12:50:23;3.08;;;1.45;;
75787;SDS011;64406;50.024;14.492;2023-02-01T12:53:14;3.67;;;1.55;;
75787;SDS011;64406;50.024;14.492;2023-02-01T12:55:47;3.35;;;1.25;;
75787;SDS011;64406;50.024;14.492;2023-02-01T12:58:22;4.18;;;1.35;;
75787;SDS011;64406;50.024;14.492;2023-02-01T13:00:58;6.45;;;1.80;;
75787;SDS011;64406;50.024;14.492;2023-02-01T13:06:15;8.57;;;2.17;;
75787;SDS011;64406;50.024;14.492;2023-02-01T13:08:47;3.95;;;1.20;;
75787;SDS011;64406;50.024;14.492;2023-02-01T13:11:19;2.00;;;1.65;;
75787;SDS011;64406;50.024;14.492;2023-02-01T13:13:56;4.32;;;1.13;;
75787;SDS011;64406;50.024;14.492;2023-02-01T13:16:35;2.22;;;1.00;;
75787;SDS011;64406;50.024;14.492;2023-02-01T13:21:32;3.90;;;1.30;;
75787;SDS011;64406;50.024;14.492;2023-02-01T13:24:02;4.05;;;1.48;;
75787;SDS011;64406;50.024;14.492;2023-02-01T13:26:28;4.88;;;1.58;;
75787;SDS011;64406;50.024;14.492;2023-02-01T13:29:05;7.15;;;1.77;;
75787;SDS011;64406;50.024;14.492;2023-02-01T13:31:42;3.45;;;1.58;;
75787;SDS011;64406;50.024;14.492;2023-02-01T13:37:35;4.95;;;1.13;;
75787;SDS011;64406;50.024;14.492;2023-02-01T13:40:06;4.32;;;1.30;;
75787;SDS011;64406;50.024;14.492;2023-02-01T13:42:47;2.35;;;1.15;;
75787;SDS011;64406;50.024;14.492;2023-02-01T13:45:18;5.75;;;1.00;;
75787;SDS011;64406;50.024;14.492;2023-02-01T13:48:04;4.18;;;1.05;;
75787;SDS011;64406;50.024;14.492;2023-02-01T13:50:35;2.47;;;0.98;;
75787;SDS011;64406;50.024;14.492;2023-02-01T13:55:38;2.55;;;1.10;;
75787;SDS011;64406;50.024;14.492;2023-02-01T13:58:14;3.10;;;0.82;;
75787;SDS011;64406;50.024;14.492;2023-02-01T14:03:50;4.32;;;1.38;;
75787;SDS011;64406;50.024;14.492;2023-02-01T14:11:54;4.03;;;1.08;;
75787;SDS011;64406;50.024;14.492;2023-02-01T14:19:19;3.50;;;1.20;;
75787;SDS011;64406;50.024;14.492;2023-02-01T14:21:53;4.85;;;1.90;;
75787;SDS011;64406;50.024;14.492;2023-02-01T14:24:29;5.88;;;2.05;;
75787;SDS011;64406;50.024;14.492;2023-02-01T14:26:55;2.65;;;1.40;;
75787;SDS011;64406;50.024;14.492;2023-02-01T14:29:42;2.70;;;1.17;;
75787;SDS011;64406;50.024;14.492;2023-02-01T14:32:19;4.45;;;1.42;;
75787;SDS011;64406;50.024;14.492;2023-02-01T14:44:46;4.72;;;1.73;;
75787;SDS011;64406;50.024;14.492;2023-02-01T14:52:33;6.07;;;1.25;;
75787;SDS011;64406;50.024;14.492;2023-02-01T14:55:05;3.67;;;1.52;;
75787;SDS011;64406;50.024;14.492;2023-02-01T14:57:37;4.93;;;1.58;;
75787;SDS011;64406;50.024;14.492;2023-02-01T15:00:08;3.58;;;1.40;;
75787;SDS011;64406;50.024;14.492;2023-02-01T15:02:34;4.43;;;1.30;;
75787;SDS011;64406;50.024;14.492;2023-02-01T15:05:12;3.17;;;1.33;;
75787;SDS011;64406;50.024;14.492;2023-02-01T15:08:19;3.50;;;1.40;;
75787;SDS011;64406;50.024;14.492;2023-02-01T15:10:53;5.70;;;1.40;;
75787;SDS011;64406;50.024;14.492;2023-02-01T15:13:22;2.58;;;1.63;;
75787;SDS011;64406;50.024;14.492;2023-02-01T15:16:02;5.22;;;1.30;;
75787;SDS011;64406;50.024;14.492;2023-02-01T15:18:29;1.67;;;1.08;;
75787;SDS011;64406;50.024;14.492;2023-02-01T15:20:59;3.22;;;1.40;;
75787;SDS011;64406;50.024;14.492;2023-02-01T15:23:26;3.00;;;1.30;;
75787;SDS011;64406;50.024;14.492;2023-02-01T15:25:52;2.25;;;1.30;;
75787;SDS011;64406;50.024;14.492;2023-02-01T15:28:18;3.72;;;1.40;;
75787;SDS011;64406;50.024;14.492;2023-02-01T15:31:30;3.10;;;1.35;;
75787;SDS011;64406;50.024;14.492;2023-02-01T15:33:36;3.55;;;1.50;;
75787;SDS011;64406;50.024;14.492;2023-02-01T15:38:32;5.90;;;1.65;;
75787;SDS011;64406;50.024;14.492;2023-02-01T15:46:19;2.38;;;1.90;;
75787;SDS011;64406;50.024;14.492;2023-02-01T15:48:51;4.72;;;1.38;;
75787;SDS011;64406;50.024;14.492;2023-02-01T15:51:20;6.88;;;1.67;;
75787;SDS011;64406;50.024;14.492;2023-02-01T15:53:58;4.00;;;1.60;;
75787;SDS011;64406;50.024;14.492;2023-02-01T15:56:28;3.95;;;1.23;;
75787;SDS011;64406;50.024;14.492;2023-02-01T15:58:59;3.72;;;1.40;;
75787;SDS011;64406;50.024;14.492;2023-02-01T16:01:26;5.25;;;2.00;;
75787;SDS011;64406;50.024;14.492;2023-02-01T16:06:45;4.15;;;1.30;;
75787;SDS011;64406;50.024;14.492;2023-02-01T16:09:14;5.20;;;1.48;;
75787;SDS011;64406;50.024;14.492;2023-02-01T16:12:03;6.38;;;1.83;;
75787;SDS011;64406;50.024;14.492;2023-02-01T16:14:29;6.22;;;1.40;;
75787;SDS011;64406;50.024;14.492;2023-02-01T16:16:55;4.00;;;1.80;;
75787;SDS011;64406;50.024;14.492;2023-02-01T16:19:23;7.05;;;1.95;;
75787;SDS011;64406;50.024;14.492;2023-02-01T16:21:53;4.28;;;2.00;;
75787;SDS011;64406;50.024;14.492;2023-02-01T16:24:20;4.93;;;1.80;;
75787;SDS011;64406;50.024;14.492;2023-02-01T16:26:48;3.47;;;1.63;;
75787;SDS011;64406;50.024;14.492;2023-02-01T16:29:13;5.22;;;1.92;;
75787;SDS011;64406;50.024;14.492;2023-02-01T16:31:40;7.93;;;2.08;;
75787;SDS011;64406;50.024;14.492;2023-02-01T16:34:10;3.15;;;1.40;;
75787;SDS011;64406;50.024;14.492;2023-02-01T16:36:39;4.63;;;1.85;;
75787;SDS011;64406;50.024;14.492;2023-02-01T16:39:04;4.07;;;1.45;;
75787;SDS011;64406;50.024;14.492;2023-02-01T16:41:32;6.30;;;2.42;;
75787;SDS011;64406;50.024;14.492;2023-02-01T16:43:58;4.53;;;1.60;;
75787;SDS011;64406;50.024;14.492;2023-02-01T16:46:24;10.40;;;2.30;;
75787;SDS011;64406;50.024;14.492;2023-02-01T16:48:55;4.47;;;2.00;;
75787;SDS011;64406;50.024;14.492;2023-02-01T16:51:23;5.43;;;1.67;;
75787;SDS011;64406;50.024;14.492;2023-02-01T16:53:51;4.47;;;1.65;;
75787;SDS011;64406;50.024;14.492;2023-02-01T16:56:18;6.70;;;2.22;;
75787;SDS011;64406;50.024;14.492;2023-02-01T16:58:47;7.40;;;2.65;;
75787;SDS011;64406;50.024;14.492;2023-02-01T17:01:13;4.50;;;1.75;;
75787;SDS011;64406;50.024;14.492;2023-02-01T17:03:41;7.20;;;1.60;;
75787;SDS011;64406;50.024;14.492;2023-02-01T17:06:09;3.95;;;1.20;;
75787;SDS011;64406;50.024;14.492;2023-02-01T17:08:37;7.18;;;2.03;;
75787;SDS011;64406;50.024;14.492;2023-02-01T17:11:06;7.65;;;2.13;;
75787;SDS011;64406;50.024;14.492;2023-02-01T17:13:32;4.53;;;2.25;;